createdAt,value
2018-10-21T14:03:35.835Z,42.10
2018-10-21T14:06:05.764Z,43.50
2018-10-21T14:08:35.403Z,42.43
2018-10-21T14:11:05.050Z,42.00
2018-10-21T14:13:34.618Z,36.90
2018-10-21T14:16:04.292Z,37.57
2018-10-21T14:18:33.918Z,37.27
2018-10-21T14:21:03.747Z,34.70
2018-10-21T14:23:33.373Z,34.70
2018-10-21T14:26:02.942Z,30.83
2018-10-21T14:28:32.524Z,30.03
2018-10-21T14:31:02.225Z,34.40
2018-10-21T14:33:32.008Z,28.33
2018-10-21T14:36:01.634Z,39.37
2018-10-21T14:38:31.390Z,31.47
2018-10-21T14:41:01.023Z,37.10
2018-10-21T14:43:30.633Z,46.83
2018-10-21T14:46:00.347Z,33.60
2018-10-21T14:48:29.887Z,23.57
2018-10-21T14:50:59.539Z,22.43
2018-10-21T14:53:29.137Z,31.80
2018-10-21T14:55:58.772Z,21.47
2018-10-21T14:58:28.379Z,24.60
2018-10-21T15:00:57.973Z,28.53
2018-10-21T15:03:27.636Z,18.17
2018-10-21T15:05:57.258Z,28.90
2018-10-21T15:08:27.125Z,27.23
2018-10-21T15:10:56.740Z,24.23
2018-10-21T15:13:26.317Z,17.80
2018-10-21T15:15:55.947Z,18.23
2018-10-21T15:18:25.545Z,11.03
2018-10-21T15:20:55.132Z,15.10
2018-10-21T15:23:24.754Z,14.47
2018-10-21T15:25:54.425Z,8.97
2018-10-21T15:28:24.135Z,14.27
2018-10-21T15:30:53.729Z,24.10
2018-10-21T15:33:24.059Z,12.33
2018-10-21T15:35:53.644Z,12.90
2018-10-21T15:38:23.208Z,12.33
2018-10-21T15:40:52.780Z,8.57
2018-10-21T15:43:22.388Z,12.70
2018-10-21T15:45:52.049Z,18.73
2018-10-21T15:48:21.605Z,9.00
2018-10-21T15:59:53.478Z,11.90
2018-10-21T16:02:48.541Z,11.33
2018-10-21T16:05:39.037Z,7.00
2018-10-21T16:08:27.254Z,5.80
2018-10-21T16:11:26.822Z,8.87
2018-10-21T16:14:26.281Z,9.40
2018-10-21T16:17:19.894Z,12.67
2018-10-21T16:20:17.994Z,7.87
2018-10-21T16:26:05.096Z,13.47
2018-10-21T16:32:04.887Z,5.30
2018-10-21T16:35:08.104Z,10.57
2018-10-21T16:37:58.139Z,13.80
2018-10-21T16:43:44.768Z,9.83
2018-10-21T16:49:52.971Z,6.00
2018-10-21T17:02:40.719Z,5.07
2018-10-21T17:14:30.870Z,5.50
2018-10-21T17:23:17.608Z,5.07
2018-10-21T17:26:30.291Z,9.47
2018-10-21T17:32:27.173Z,10.80
2018-10-21T17:35:28.084Z,9.73
2018-10-21T17:38:18.248Z,11.50
2018-10-21T17:41:13.053Z,10.70
2018-10-21T17:56:31.876Z,9.70
2018-10-21T17:59:17.769Z,6.00
2018-10-21T18:02:07.445Z,6.63
2018-10-21T18:05:06.301Z,6.53
2018-10-21T18:20:22.705Z,3.60
2018-10-21T18:34:53.616Z,2.80
2018-10-21T18:37:50.143Z,2.57
2018-10-21T18:40:37.900Z,6.43
2018-10-21T18:49:45.485Z,3.47
2018-10-21T18:56:14.417Z,3.40
2018-10-21T18:59:04.684Z,3.43
2018-10-21T19:07:43.246Z,3.00
2018-10-21T19:16:49.107Z,3.60
2018-10-21T19:19:46.957Z,3.13
2018-10-21T19:28:58.428Z,4.73
2018-10-21T19:34:48.046Z,3.53
2018-10-21T19:40:39.546Z,4.20
2018-10-21T19:46:19.145Z,3.33
2018-10-21T19:55:20.880Z,4.97
2018-10-21T19:58:17.595Z,2.17
2018-10-21T20:10:31.005Z,2.53
2018-10-21T20:13:23.896Z,3.70
2018-10-21T20:19:26.385Z,4.03
2018-10-21T20:25:17.876Z,3.10
2018-10-21T20:28:11.707Z,2.60
2018-10-21T20:31:00.702Z,2.53
2018-10-21T20:34:14.130Z,3.90
2018-10-21T20:37:12.716Z,2.83
2018-10-21T20:43:05.286Z,2.60
2018-10-21T20:45:57.299Z,5.43
2018-10-21T20:48:50.732Z,3.37
2018-10-21T20:51:48.559Z,5.03
2018-10-21T21:06:51.784Z,3.73
2018-10-21T21:21:13.743Z,4.40
2018-10-21T21:23:56.642Z,3.00
2018-10-21T21:26:37.017Z,5.87
2018-10-21T21:32:29.357Z,3.60
2018-10-21T21:35:22.531Z,4.20
2018-10-21T21:38:13.489Z,4.93
2018-10-21T21:41:02.510Z,5.43
2018-10-21T21:46:53.559Z,5.07
2018-10-21T21:55:29.877Z,4.20
2018-10-21T21:58:13.891Z,6.03
2018-10-21T22:00:56.754Z,6.13
2018-10-21T22:03:41.392Z,5.57
2018-10-21T22:06:35.933Z,5.27
2018-10-21T22:12:20.862Z,4.53
2018-10-21T22:15:14.358Z,4.30
2018-10-21T22:18:01.373Z,5.00
2018-10-21T22:20:45.934Z,5.87
2018-10-21T22:29:07.412Z,5.77
2018-10-21T22:31:58.974Z,5.20
2018-10-21T22:37:40.348Z,8.33
2018-10-21T22:40:34.427Z,4.97
2018-10-21T22:43:18.901Z,9.53
2018-10-21T22:46:06.281Z,7.10
2018-10-21T22:48:54.692Z,5.60
2018-10-21T22:51:46.373Z,5.33
2018-10-21T22:54:38.708Z,5.40
2018-10-21T22:57:23.584Z,4.93
2018-10-21T23:00:12.591Z,5.53
2018-10-21T23:06:05.716Z,4.83
2018-10-21T23:08:55.687Z,5.07
2018-10-21T23:11:43.560Z,4.63
2018-10-21T23:14:37.228Z,5.63
2018-10-21T23:17:31.396Z,5.33
2018-10-21T23:23:12.789Z,5.70
2018-10-21T23:25:59.317Z,4.37
2018-10-21T23:31:45.222Z,5.33
2018-10-21T23:34:35.631Z,6.57
2018-10-21T23:37:23.258Z,4.43
2018-10-21T23:42:56.898Z,4.67
2018-10-21T23:45:44.505Z,4.43
2018-10-21T23:48:36.098Z,7.73
2018-10-21T23:54:17.252Z,3.53
